Time;durP1;ratioP1;P1;durP2;ratioP2;P2;SDS_P1;SDS_P2;PMS_P1;PMS_P2;Temp;Humidity;BMP_temperature;BMP_pressure;BME280_temperature;BME280_humidity;BME280_pressure;Samples;Min_cycle;Max_cycle;Signal;HPM_P1;HPM_P2
2021/12/05 00:24:15;;;;;;;2.10;1.00;;;19.60;47.70;;;;;;4853240;29;20042;-65
2021/12/05 00:26:53;;;;;;;2.25;1.20;;;19.60;47.70;;;;;;4858163;29;20034;-65
2021/12/05 00:29:27;;;;;;;1.95;0.90;;;19.60;47.70;;;;;;4850272;29;20466;-65
2021/12/05 01:11:59;;;;;;;4.30;1.25;;;19.50;48.00;;;;;;4849490;29;20041;-64
2021/12/05 01:14:33;;;;;;;7.15;1.45;;;19.40;47.80;;;;;;4846707;29;20541;-65
2021/12/05 01:17:01;;;;;;;4.07;1.23;;;19.40;47.90;;;;;;4845262;29;20183;-65
2021/12/05 01:19:29;;;;;;;4.10;1.70;;;19.40;47.80;;;;;;4847037;29;20049;-65
2021/12/05 01:22:03;;;;;;;5.00;1.30;;;19.40;49.00;;;;;;4855306;29;20516;-65
2021/12/05 01:27:18;;;;;;;2.88;1.20;;;19.40;47.90;;;;;;4863034;29;20044;-65
2021/12/05 01:29:57;;;;;;;6.07;1.40;;;19.30;47.80;;;;;;4842820;29;20042;-66
2021/12/05 01:33:35;;;;;;;3.13;1.40;;;19.30;47.70;;;;;;4846614;29;20045;-65
2021/12/05 01:38:12;;;;;;;6.57;1.20;;;19.20;47.60;;;;;;4849040;29;20120;-64
2021/12/05 01:51:49;;;;;;;2.92;1.20;;;19.10;47.40;;;;;;4855159;29;20042;-64
2021/12/05 02:11:03;;;;;;;2.80;1.27;;;18.90;47.20;;;;;;4852285;29;20057;-64
2021/12/05 02:45:27;;;;;;;2.90;1.10;;;18.70;46.90;;;;;;4848455;29;20041;-62
2021/12/05 02:47:54;;;;;;;2.97;1.13;;;18.60;47.80;;;;;;4846900;29;20030;-62
2021/12/05 02:50:26;;;;;;;2.55;1.20;;;18.60;46.90;;;;;;4846730;29;20382;-62
2021/12/05 02:52:57;;;;;;;2.58;1.17;;;18.60;46.80;;;;;;4847065;29;20432;-62
2021/12/05 02:55:37;;;;;;;3.35;1.30;;;18.60;46.70;;;;;;4849385;29;20474;-62
2021/12/05 02:58:15;;;;;;;3.05;1.08;;;18.60;46.70;;;;;;4846858;29;20046;-62
2021/12/05 03:00:54;;;;;;;4.57;1.15;;;18.50;46.70;;;;;;4852819;29;20538;-63
2021/12/05 03:03:22;;;;;;;3.38;1.20;;;18.50;46.70;;;;;;4849040;29;20466;-62
2021/12/05 03:05:55;;;;;;;5.53;1.30;;;18.60;46.70;;;;;;4860389;29;20037;-62
2021/12/05 03:08:21;;;;;;;2.67;1.05;;;18.50;46.70;;;;;;4851175;29;20430;-62
2021/12/05 03:10:47;;;;;;;1.90;0.98;;;18.50;46.80;;;;;;4847901;29;20038;-64
2021/12/05 03:13:13;;;;;;;2.67;1.30;;;18.50;46.60;;;;;;4859001;29;20044;-64
2021/12/05 03:15:38;;;;;;;3.38;1.33;;;18.50;46.60;;;;;;4849292;29;20057;-64
2021/12/05 03:18:04;;;;;;;2.22;1.15;;;18.50;47.60;;;;;;4849772;29;20092;-64
2021/12/05 03:20:30;;;;;;;3.22;1.00;;;18.40;46.70;;;;;;4846309;29;20101;-62
2021/12/05 03:22:55;;;;;;;4.43;1.40;;;18.40;46.60;;;;;;4850338;29;20029;-62
2021/12/05 03:25:22;;;;;;;2.60;1.30;;;18.40;46.60;;;;;;4846410;29;20105;-62
2021/12/05 03:27:48;;;;;;;2.60;1.17;;;18.40;46.60;;;;;;4850268;29;20486;-62
2021/12/05 03:30:19;;;;;;;2.78;1.05;;;18.40;46.60;;;;;;4854509;29;20041;-62
2021/12/05 03:32:48;;;;;;;1.70;0.82;;;18.40;46.70;;;;;;4847770;29;20415;-62
2021/12/05 03:35:13;;;;;;;3.03;1.23;;;18.40;46.70;;;;;;4845566;29;20073;-62
2021/12/05 03:37:39;;;;;;;2.45;1.05;;;18.40;46.60;;;;;;4848032;29;20054;-62
2021/12/05 03:40:07;;;;;;;3.35;1.65;;;18.30;46.60;;;;;;4849600;29;20486;-62
2021/12/05 03:42:33;;;;;;;2.63;1.00;;;18.30;46.60;;;;;;4847705;29;20344;-62
2021/12/05 03:45:00;;;;;;;3.15;0.95;;;18.30;46.60;;;;;;4828279;29;20022;-62
2021/12/05 03:47:28;;;;;;;1.85;1.10;;;18.30;46.60;;;;;;4845674;29;20539;-62
2021/12/05 03:49:55;;;;;;;2.83;1.13;;;18.30;46.60;;;;;;4844479;29;20026;-62
2021/12/05 03:52:21;;;;;;;1.88;0.95;;;18.30;46.60;;;;;;4847179;29;20121;-62
2021/12/05 03:54:47;;;;;;;3.67;1.35;;;18.30;46.60;;;;;;4847502;29;20111;-62
2021/12/05 03:57:13;;;;;;;4.10;1.00;;;18.20;46.50;;;;;;4847594;29;20065;-62
2021/12/05 03:59:39;;;;;;;3.03;0.98;;;18.20;46.50;;;;;;4846072;29;20026;-62
2021/12/05 04:02:07;;;;;;;2.13;1.10;;;18.20;46.60;;;;;;4850239;29;20041;-62
2021/12/05 04:04:33;;;;;;;2.85;0.93;;;18.20;46.50;;;;;;4845498;29;20030;-62
2021/12/05 04:06:59;;;;;;;1.95;1.20;;;18.20;46.50;;;;;;4846223;29;20045;-62
2021/12/05 04:09:25;;;;;;;1.85;0.93;;;18.20;46.60;;;;;;4846183;29;20167;-62
2021/12/05 04:11:59;;;;;;;3.42;0.90;;;18.20;46.50;;;;;;4832843;29;20113;-62
2021/12/05 04:14:30;;;;;;;2.85;1.08;;;18.20;46.50;;;;;;4849151;29;20041;-62
2021/12/05 04:16:55;;;;;;;3.13;1.10;;;18.10;46.50;;;;;;4845274;29;20486;-62
2021/12/05 04:19:22;;;;;;;2.95;1.05;;;18.10;47.40;;;;;;4853545;29;20056;-62
2021/12/05 04:21:49;;;;;;;1.48;0.85;;;18.10;46.50;;;;;;4844940;29;20048;-62
2021/12/05 04:24:15;;;;;;;2.20;1.17;;;18.10;46.50;;;;;;4847455;29;20037;-62
2021/12/05 04:26:41;;;;;;;2.75;1.25;;;18.10;46.50;;;;;;4845134;29;20109;-62
2021/12/05 04:29:08;;;;;;;2.53;1.05;;;18.10;46.50;;;;;;4830864;29;20521;-62
2021/12/05 04:31:35;;;;;;;2.90;1.48;;;18.10;46.50;;;;;;4845333;29;20449;-62
2021/12/05 04:34:01;;;;;;;1.88;0.95;;;18.10;46.50;;;;;;4846147;29;20113;-62
2021/12/05 04:36:27;;;;;;;2.50;1.00;;;18.10;46.50;;;;;;4852301;29;20038;-62
2021/12/05 04:38:53;;;;;;;2.00;0.90;;;18.00;46.50;;;;;;4851122;29;20086;-62
2021/12/05 04:41:19;;;;;;;3.15;0.93;;;18.00;46.40;;;;;;4846326;29;20458;-64
2021/12/05 04:43:46;;;;;;;1.70;0.88;;;18.00;46.50;;;;;;4845079;29;20498;-64
2021/12/05 04:46:15;;;;;;;2.20;1.00;;;18.00;46.40;;;;;;4828106;29;20406;-64
2021/12/05 04:48:43;;;;;;;2.40;0.98;;;18.00;46.40;;;;;;4844668;29;20022;-64
2021/12/05 04:51:09;;;;;;;0.98;0.70;;;18.00;46.40;;;;;;4844456;29;20112;-62
2021/12/05 04:53:35;;;;;;;2.28;0.93;;;18.00;46.50;;;;;;4846122;29;20040;-62
2021/12/05 04:56:02;;;;;;;2.28;1.00;;;18.00;46.40;;;;;;4844163;29;20034;-62
2021/12/05 04:58:27;;;;;;;2.65;1.00;;;18.00;46.50;;;;;;4846226;29;20025;-62
2021/12/05 05:00:57;;;;;;;2.70;1.05;;;18.00;46.50;;;;;;4849566;29;20109;-62
2021/12/05 05:03:25;;;;;;;2.20;0.93;;;18.00;46.40;;;;;;4846597;29;20030;-62
2021/12/05 05:06:02;;;;;;;2.08;0.93;;;17.90;46.50;;;;;;4853237;29;20117;-62
2021/12/05 05:08:30;;;;;;;2.92;0.90;;;17.90;46.40;;;;;;4846241;29;20036;-62
2021/12/05 05:10:58;;;;;;;1.92;0.85;;;17.90;46.50;;;;;;4847485;29;20034;-62
2021/12/05 05:13:25;;;;;;;1.40;0.70;;;17.90;46.50;;;;;;4849074;29;20060;-62
2021/12/05 05:15:51;;;;;;;2.00;0.88;;;17.90;46.40;;;;;;4850417;29;20057;-62
2021/12/05 05:18:17;;;;;;;1.95;0.90;;;17.90;46.50;;;;;;4848848;29;20367;-62
2021/12/05 05:39:35;;;;;;;2.00;0.90;;;17.80;46.50;;;;;;4855326;29;20094;-62
2021/12/05 05:42:25;;;;;;;3.60;1.00;;;17.80;46.60;;;;;;4849650;29;20067;-62
2021/12/05 05:47:41;;;;;;;2.03;0.82;;;17.80;46.60;;;;;;4849174;29;20041;-64
2021/12/05 05:50:07;;;;;;;4.80;0.98;;;17.70;46.60;;;;;;4845430;29;20498;-65
2021/12/05 05:52:33;;;;;;;1.60;0.70;;;17.70;46.60;;;;;;4856385;29;20034;-64
2021/12/05 05:55:00;;;;;;;2.05;0.60;;;17.70;46.60;;;;;;4850293;29;20390;-64
2021/12/05 05:57:43;;;;;;;1.85;0.65;;;17.70;46.60;;;;;;4848628;29;20048;-65
2021/12/05 06:00:29;;;;;;;3.03;0.95;;;17.70;47.50;;;;;;4851174;29;20041;-65
2021/12/05 06:05:39;;;;;;;1.63;0.60;;;17.70;46.60;;;;;;4849399;29;20036;-64
2021/12/05 06:08:05;;;;;;;1.92;0.90;;;17.70;46.60;;;;;;4844570;29;20094;-64
2021/12/05 06:10:32;;;;;;;0.88;0.63;;;17.70;46.60;;;;;;4849041;29;20030;-64
2021/12/05 06:12:58;;;;;;;1.05;0.55;;;17.70;46.60;;;;;;4850481;29;20355;-64
2021/12/05 06:15:26;;;;;;;1.48;0.68;;;17.70;46.60;;;;;;4849991;29;20062;-61
2021/12/05 06:17:53;;;;;;;3.10;0.77;;;17.70;46.60;;;;;;4848502;29;20415;-62
2021/12/05 06:20:23;;;;;;;1.98;0.85;;;17.60;46.60;;;;;;4831607;29;20398;-62
2021/12/05 06:22:49;;;;;;;0.77;0.60;;;17.60;46.50;;;;;;4848958;29;20387;-62
2021/12/05 06:25:20;;;;;;;2.25;0.60;;;17.60;46.50;;;;;;4847145;29;20098;-62
2021/12/05 06:27:59;;;;;;;1.60;0.60;;;17.60;46.60;;;;;;4849466;29;20034;-61
2021/12/05 06:30:45;;;;;;;1.42;0.80;;;17.60;46.50;;;;;;4846655;29;20038;-61
2021/12/05 06:41:24;;;;;;;1.08;0.63;;;17.50;46.60;;;;;;4845548;29;20041;-65
2021/12/05 06:46:30;;;;;;;2.80;0.90;;;17.50;46.60;;;;;;4845240;29;20394;-64
2021/12/05 06:48:56;;;;;;;2.70;0.75;;;17.50;46.60;;;;;;4847941;29;20044;-64
2021/12/05 06:51:27;;;;;;;1.25;0.50;;;17.50;46.60;;;;;;4846608;29;20033;-64
2021/12/05 06:53:54;;;;;;;2.13;0.63;;;17.50;46.60;;;;;;4847279;29;20078;-64
2021/12/05 06:56:20;;;;;;;1.40;0.75;;;17.50;46.60;;;;;;4852995;29;20042;-64
2021/12/05 06:58:46;;;;;;;0.90;0.60;;;17.50;46.60;;;;;;4846613;29;20040;-64
2021/12/05 07:01:13;;;;;;;1.23;0.50;;;17.50;46.60;;;;;;4845133;29;20120;-64
2021/12/05 07:03:43;;;;;;;1.45;0.40;;;17.50;46.60;;;;;;4852625;29;20383;-64
2021/12/05 07:06:18;;;;;;;1.50;0.57;;;17.50;46.60;;;;;;4845330;29;20040;-64
2021/12/05 07:08:44;;;;;;;2.17;0.60;;;17.50;46.70;;;;;;4846113;29;20041;-64
2021/12/05 07:11:34;;;;;;;1.85;0.80;;;17.50;46.60;;;;;;4854693;29;20034;-62
2021/12/05 07:16:53;;;;;;;0.80;0.47;;;17.40;46.50;;;;;;4845286;29;20046;-62
2021/12/05 07:21:51;;;;;;;0.52;0.45;;;17.40;46.60;;;;;;4846260;29;20494;-62
2021/12/05 07:40:29;;;;;;;1.25;0.65;;;17.30;46.60;;;;;;4850495;29;20136;-64
2021/12/05 07:43:04;;;;;;;2.63;0.93;;;17.30;46.70;;;;;;4845162;29;20034;-64
2021/12/05 07:45:41;;;;;;;0.47;0.38;;;17.30;46.70;;;;;;4846834;29;20036;-64
2021/12/05 07:48:15;;;;;;;1.00;0.43;;;17.30;46.70;;;;;;4844226;29;20052;-64
2021/12/05 07:53:58;;;;;;;0.50;0.40;;;17.30;46.70;;;;;;4846918;29;20103;-62
2021/12/05 07:56:38;;;;;;;1.15;0.50;;;17.30;46.70;;;;;;4844077;29;20098;-61
2021/12/05 07:59:16;;;;;;;0.60;0.57;;;17.30;46.70;;;;;;4845627;29;20030;-62
2021/12/05 08:15:30;;;;;;;1.05;0.50;;;17.20;46.70;;;;;;4847084;29;20073;-62
2021/12/05 08:17:58;;;;;;;2.30;0.52;;;17.20;46.70;;;;;;4846645;29;20044;-62
2021/12/05 08:20:30;;;;;;;0.73;0.38;;;17.20;46.70;;;;;;4853653;29;20387;-62
2021/12/05 08:22:57;;;;;;;1.00;0.60;;;17.20;47.60;;;;;;4848230;29;20030;-63
2021/12/05 08:25:28;;;;;;;2.03;0.98;;;17.20;46.30;;;;;;4844253;29;20396;-63
2021/12/05 08:28:04;;;;;;;2.55;0.93;;;16.90;45.70;;;;;;4846837;29;20032;-62
2021/12/05 08:30:34;;;;;;;1.10;0.60;;;16.50;46.00;;;;;;4843934;29;20057;-63
2021/12/05 09:24:43;;;;;;;2.13;0.70;;;16.70;49.70;;;;;;4852809;29;20116;-59
2021/12/05 09:30:00;;;;;;;1.38;0.60;;;17.10;49.40;;;;;;4851073;29;20116;-60
2021/12/05 09:52:11;;;;;;;2.70;0.77;;;18.20;47.70;;;;;;4852413;29;20071;-62
2021/12/05 10:02:49;;;;;;;3.47;0.98;;;18.70;47.20;;;;;;4846639;29;20091;-61
2021/12/05 10:11:05;;;;;;;2.83;0.70;;;19.00;46.70;;;;;;4849028;29;20044;-58
2021/12/05 10:13:45;;;;;;;4.32;0.68;;;19.10;46.50;;;;;;4847733;29;20028;-58
2021/12/05 10:16:19;;;;;;;2.88;0.80;;;19.20;46.40;;;;;;4849851;29;20042;-58
2021/12/05 10:27:08;;;;;;;3.15;0.63;;;19.60;45.70;;;;;;4858281;29;20088;-61
2021/12/05 10:35:53;;;;;;;2.53;0.50;;;19.80;45.50;;;;;;4852600;29;20069;-61
2021/12/05 10:38:26;;;;;;;1.55;0.60;;;19.90;45.50;;;;;;4856585;29;20398;-59
2021/12/05 10:41:03;;;;;;;2.42;0.73;;;20.00;45.50;;;;;;4852667;29;20033;-60
2021/12/05 10:43:30;;;;;;;2.03;0.50;;;20.10;45.50;;;;;;4853015;29;20033;-60
2021/12/05 10:46:08;;;;;;;1.77;0.60;;;20.20;45.40;;;;;;4845498;29;20113;-60
2021/12/05 10:49:07;;;;;;;1.73;0.57;;;20.30;45.50;;;;;;4852073;29;20040;-60
2021/12/05 10:51:46;;;;;;;3.13;0.52;;;20.40;45.30;;;;;;4845106;29;20034;-60
2021/12/05 10:54:15;;;;;;;1.52;0.45;;;20.50;45.20;;;;;;4839810;29;20053;-60
2021/12/05 10:56:42;;;;;;;2.35;0.60;;;20.60;45.20;;;;;;4854298;29;20029;-60
2021/12/05 10:59:17;;;;;;;2.08;0.50;;;20.70;45.00;;;;;;4855092;29;20094;-60
2021/12/05 11:01:44;;;;;;;1.88;0.60;;;20.70;45.80;;;;;;4854148;29;20029;-60
2021/12/05 11:04:12;;;;;;;1.95;0.40;;;20.80;44.80;;;;;;4853722;29;20463;-60
2021/12/05 11:07:00;;;;;;;2.47;0.50;;;20.90;44.90;;;;;;4860257;29;20082;-61
2021/12/05 11:09:27;;;;;;;2.20;0.50;;;21.00;44.60;;;;;;4853681;29;20033;-59
2021/12/05 11:12:00;;;;;;;2.58;0.68;;;21.00;44.50;;;;;;4859216;29;20038;-60
2021/12/05 11:14:29;;;;;;;3.90;0.60;;;21.10;44.40;;;;;;4855251;29;20525;-59
2021/12/05 11:17:03;;;;;;;1.13;0.50;;;21.20;44.40;;;;;;4854907;29;20680;-59
2021/12/05 11:19:37;;;;;;;5.22;0.70;;;21.30;44.40;;;;;;4854430;29;20054;-61
2021/12/05 11:22:10;;;;;;;9.27;0.75;;;21.30;44.30;;;;;;4846458;29;20447;-59
2021/12/05 11:24:40;;;;;;;3.50;0.38;;;21.30;44.10;;;;;;4847217;29;20060;-58
2021/12/05 11:27:14;;;;;;;1.77;0.60;;;21.30;44.00;;;;;;4850193;29;20419;-58
2021/12/05 11:29:54;;;;;;;3.72;0.70;;;21.40;44.00;;;;;;4843797;29;20038;-60
2021/12/05 11:32:32;;;;;;;2.38;0.43;;;21.40;43.90;;;;;;4844388;29;20040;-60
2021/12/05 11:34:58;;;;;;;6.97;2.65;;;21.50;43.60;;;;;;4849003;29;20435;-60
2021/12/05 11:37:23;;;;;;;6.20;2.70;;;21.50;43.60;;;;;;4846562;29;20025;-60
2021/12/05 11:39:50;;;;;;;27.45;11.88;;;21.50;43.60;;;;;;4848422;29;20095;-61
2021/12/05 11:42:20;;;;;;;14.95;7.07;;;21.50;43.50;;;;;;4844635;29;20049;-61
2021/12/05 11:44:49;;;;;;;30.13;11.10;;;21.50;43.40;;;;;;4846550;29;20038;-61
2021/12/05 11:47:18;;;;;;;31.40;13.20;;;21.50;43.20;;;;;;4845164;29;20112;-61
2021/12/05 11:49:44;;;;;;;35.53;14.70;;;21.50;43.00;;;;;;4843928;29;20030;-59
2021/12/05 11:52:11;;;;;;;40.17;17.92;;;21.60;43.00;;;;;;4843557;29;20474;-60
2021/12/05 11:54:46;;;;;;;45.05;20.38;;;21.60;43.10;;;;;;4844300;29;20030;-60
2021/12/05 11:57:30;;;;;;;62.47;28.20;;;21.60;43.00;;;;;;4843846;29;20109;-59
2021/12/05 12:00:04;;;;;;;70.40;32.20;;;21.60;43.20;;;;;;4844171;29;20033;-59
2021/12/05 12:02:40;;;;;;;72.30;33.55;;;21.60;43.50;;;;;;4843553;29;20148;-60
2021/12/05 12:05:14;;;;;;;67.30;31.08;;;21.60;43.50;;;;;;4846716;29;20022;-60
2021/12/05 12:07:42;;;;;;;70.60;32.25;;;21.60;43.40;;;;;;4847227;29;20034;-60
2021/12/05 12:10:21;;;;;;;77.75;33.47;;;21.60;43.60;;;;;;4843768;29;20036;-59
2021/12/05 12:12:50;;;;;;;73.57;34.47;;;21.60;43.70;;;;;;4846591;29;20030;-59
2021/12/05 12:15:16;;;;;;;63.10;31.35;;;21.60;43.90;;;;;;4845690;29;20050;-59
2021/12/05 12:17:45;;;;;;;72.45;32.22;;;21.60;44.00;;;;;;4843660;29;20022;-63
2021/12/05 12:20:16;;;;;;;66.85;30.58;;;21.60;44.10;;;;;;4843225;29;20053;-59
2021/12/05 12:22:43;;;;;;;61.58;29.08;;;21.60;44.00;;;;;;4842745;29;20074;-59
2021/12/05 12:25:12;;;;;;;63.67;29.73;;;21.70;44.20;;;;;;4842795;29;20037;-58
2021/12/05 12:27:42;;;;;;;57.47;28.67;;;21.70;44.70;;;;;;4842889;29;20072;-59
2021/12/05 12:30:10;;;;;;;49.90;26.38;;;21.70;45.20;;;;;;4842990;29;20022;-58
2021/12/05 12:32:42;;;;;;;56.13;25.73;;;21.70;45.20;;;;;;4842567;29;20521;-58
2021/12/05 12:35:15;;;;;;;55.65;26.23;;;21.70;45.10;;;;;;4847350;29;20026;-58
2021/12/05 12:38:02;;;;;;;57.50;27.58;;;21.70;45.10;;;;;;4842965;29;20033;-60
2021/12/05 12:40:46;;;;;;;53.10;23.58;;;21.80;45.60;;;;;;4842806;29;20030;-61
2021/12/05 12:43:38;;;;;;;52.80;23.35;;;21.70;45.70;;;;;;4842346;29;20030;-58
2021/12/05 12:46:36;;;;;;;43.88;23.15;;;21.70;46.10;;;;;;4830214;29;20038;-58
2021/12/05 12:49:16;;;;;;;49.80;22.15;;;21.70;46.40;;;;;;4838652;29;20038;-58
2021/12/05 12:51:51;;;;;;;45.92;22.45;;;21.70;46.70;;;;;;4842318;29;20038;-58
2021/12/05 12:54:43;;;;;;;45.17;21.58;;;21.60;47.80;;;;;;4842616;29;20050;-58
2021/12/05 12:57:19;;;;;;;42.20;21.38;;;21.60;46.90;;;;;;4842546;29;20430;-58
2021/12/05 12:59:45;;;;;;;37.08;19.55;;;21.60;47.00;;;;;;4842252;29;20038;-61
2021/12/05 13:02:38;;;;;;;41.20;20.90;;;21.60;47.10;;;;;;4848662;29;20049;-61
2021/12/05 13:05:24;;;;;;;43.50;19.77;;;21.60;47.30;;;;;;4852962;29;20033;-58
2021/12/05 13:10:37;;;;;;;37.58;18.98;;;21.50;48.50;;;;;;4842990;29;20046;-59
2021/12/05 13:13:15;;;;;;;37.08;18.88;;;21.60;47.80;;;;;;4846415;29;20391;-60
2021/12/05 13:15:52;;;;;;;39.90;18.58;;;21.60;49.00;;;;;;4844796;29;20460;-60
2021/12/05 13:18:26;;;;;;;40.17;17.77;;;21.60;48.20;;;;;;4842709;29;20030;-60
2021/12/05 13:21:15;;;;;;;36.10;17.05;;;21.60;48.40;;;;;;4842817;29;20026;-59
2021/12/05 13:23:44;;;;;;;37.80;16.83;;;21.60;48.80;;;;;;4841823;29;20030;-60
2021/12/05 13:26:15;;;;;;;28.75;13.18;;;21.60;48.90;;;;;;4858641;29;20022;-60
2021/12/05 13:28:48;;;;;;;29.15;14.43;;;21.60;47.70;;;;;;4854257;29;20097;-59
2021/12/05 13:31:34;;;;;;;30.15;13.30;;;21.60;47.70;;;;;;4825568;29;20033;-59
2021/12/05 13:34:25;;;;;;;28.98;13.32;;;21.60;47.90;;;;;;4847347;29;20038;-65
2021/12/05 13:37:06;;;;;;;26.83;12.88;;;21.60;48.30;;;;;;4863471;29;20493;-63
2021/12/05 13:39:45;;;;;;;23.67;11.82;;;21.50;47.90;;;;;;4853367;29;20038;-64
2021/12/05 13:42:16;;;;;;;22.10;10.90;;;21.50;47.50;;;;;;4860026;29;20121;-64
2021/12/05 13:45:04;;;;;;;25.75;11.40;;;21.50;47.70;;;;;;4855606;29;20025;-64
2021/12/05 13:47:37;;;;;;;20.88;11.10;;;21.60;48.00;;;;;;4851585;29;20486;-61
2021/12/05 13:50:29;;;;;;;25.23;10.93;;;21.60;48.30;;;;;;4849286;29;20098;-67
2021/12/05 13:53:05;;;;;;;23.65;10.73;;;21.50;48.30;;;;;;4855696;29;20036;-65
2021/12/05 13:55:53;;;;;;;21.40;10.18;;;21.50;48.40;;;;;;4863021;29;20352;-65
2021/12/05 13:58:35;;;;;;;24.63;9.70;;;21.50;48.40;;;;;;4850425;29;20038;-64
2021/12/05 14:01:03;;;;;;;22.53;10.00;;;21.50;48.50;;;;;;4850643;29;20393;-65
2021/12/05 14:03:56;;;;;;;21.83;9.40;;;21.50;48.80;;;;;;4850395;29;20057;-66
2021/12/05 14:06:22;;;;;;;;;;;21.50;48.50;;;;;;4851486;29;20498;-69
2021/12/05 14:08:47;;;;;;;19.27;8.55;;;21.40;48.10;;;;;;4852132;29;19916;-69
2021/12/05 14:11:13;;;;;;;19.23;8.82;;;21.40;48.40;;;;;;4852879;29;20378;-67
2021/12/05 14:13:39;;;;;;;16.70;8.45;;;21.40;48.60;;;;;;4853882;29;20038;-68
2021/12/05 14:16:04;;;;;;;19.17;8.00;;;21.40;48.80;;;;;;4855963;29;20065;-67
2021/12/05 14:18:30;;;;;;;16.33;7.63;;;21.40;49.00;;;;;;4837936;29;20073;-70
2021/12/05 14:21:09;;;;;;;22.00;8.07;;;21.40;49.20;;;;;;4851387;29;20038;-67
2021/12/05 14:23:35;;;;;;;17.92;7.78;;;21.50;49.50;;;;;;4850796;29;20385;-67
2021/12/05 14:26:13;;;;;;;15.43;7.63;;;21.50;49.50;;;;;;4854246;29;20040;-67
2021/12/05 14:28:39;;;;;;;16.95;7.55;;;21.50;49.30;;;;;;4850667;29;20158;-66
2021/12/05 14:31:05;;;;;;;18.75;6.88;;;21.50;49.40;;;;;;4857451;29;20116;-63
2021/12/05 14:33:51;;;;;;;20.23;7.60;;;21.50;49.70;;;;;;4849774;29;20542;-60
2021/12/05 14:37:03;;;;;;;20.65;6.97;;;21.50;49.30;;;;;;4849966;29;20022;-60
2021/12/05 14:39:29;;;;;;;15.93;7.55;;;21.50;49.40;;;;;;4845212;29;20470;-62
2021/12/05 14:41:59;;;;;;;15.55;6.10;;;21.50;49.70;;;;;;4851305;29;20026;-62
2021/12/05 14:44:26;;;;;;;13.90;6.45;;;21.50;49.90;;;;;;4852776;29;20475;-63
2021/12/05 14:46:56;;;;;;;20.17;6.95;;;21.50;50.00;;;;;;4849376;29;20119;-61
2021/12/05 14:49:25;;;;;;;16.95;6.55;;;21.50;50.00;;;;;;4852972;29;20315;-63
2021/12/05 14:51:51;;;;;;;12.50;6.15;;;21.50;50.20;;;;;;4845450;29;20029;-63
2021/12/05 14:54:29;;;;;;;14.90;7.00;;;21.50;50.30;;;;;;4846108;29;20439;-60
2021/12/05 14:56:56;;;;;;;14.77;6.47;;;21.50;50.40;;;;;;4855094;29;20040;-63
2021/12/05 14:59:23;;;;;;;15.95;7.53;;;21.50;50.70;;;;;;4846136;29;20041;-66
2021/12/05 15:01:53;;;;;;;18.27;7.70;;;21.50;50.80;;;;;;4850533;29;20048;-65
2021/12/05 15:04:26;;;;;;;18.02;7.60;;;21.50;51.20;;;;;;4853073;29;20037;-72
2021/12/05 15:06:52;;;;;;;16.38;7.45;;;21.50;51.50;;;;;;4858300;29;20026;-61
2021/12/05 15:09:25;;;;;;;17.48;7.43;;;21.50;51.50;;;;;;4847835;29;20040;-61
2021/12/05 15:12:19;;;;;;;17.75;7.78;;;21.50;51.80;;;;;;4853430;29;20044;-61
2021/12/05 15:14:48;;;;;;;15.27;7.40;;;21.60;52.00;;;;;;4850489;29;20116;-58
2021/12/05 15:17:19;;;;;;;12.75;7.35;;;21.60;51.90;;;;;;4846168;29;20042;-58
2021/12/05 15:19:50;;;;;;;16.35;7.28;;;21.60;52.10;;;;;;4848536;29;20042;-58
2021/12/05 15:22:16;;;;;;;15.18;8.80;;;21.50;52.00;;;;;;4845853;29;20038;-58
2021/12/05 15:24:54;;;;;;;11.80;6.85;;;21.50;52.00;;;;;;4847411;29;20509;-57
2021/12/05 15:27:23;;;;;;;14.35;7.10;;;21.50;52.10;;;;;;4846576;29;20546;-58
2021/12/05 15:30:02;;;;;;;12.60;7.22;;;21.50;52.20;;;;;;4845982;29;20033;-58
2021/12/05 15:32:31;;;;;;;11.90;6.38;;;21.50;52.20;;;;;;4847394;29;20029;-58
2021/12/05 15:35:04;;;;;;;13.10;6.40;;;21.50;52.30;;;;;;4845218;29;20026;-57
2021/12/05 15:37:30;;;;;;;11.45;6.55;;;21.50;52.20;;;;;;4847953;29;20033;-58
2021/12/05 15:39:57;;;;;;;9.27;6.00;;;21.50;52.30;;;;;;4845884;29;20090;-60
2021/12/05 15:42:30;;;;;;;17.35;5.72;;;21.50;52.10;;;;;;4847066;29;20470;-60
2021/12/05 15:44:58;;;;;;;10.30;5.63;;;21.50;52.80;;;;;;4845362;29;20030;-60
2021/12/05 15:47:28;;;;;;;13.50;6.00;;;21.40;51.80;;;;;;4847560;29;20026;-59
2021/12/05 15:50:16;;;;;;;10.70;6.15;;;21.40;51.70;;;;;;4849706;29;20025;-63
2021/12/05 15:52:50;;;;;;;9.90;5.43;;;21.40;51.90;;;;;;4850798;29;20040;-63
2021/12/05 15:55:19;;;;;;;9.52;5.03;;;21.40;51.80;;;;;;4846711;29;20038;-62
2021/12/05 15:57:52;;;;;;;10.93;5.50;;;21.40;51.70;;;;;;4843983;29;20033;-63
2021/12/05 16:00:30;;;;;;;;;;;21.40;51.60;;;;;;4848235;29;20030;-62
2021/12/05 16:03:01;;;;;;;12.10;5.22;;;21.30;51.60;;;;;;4844294;29;19920;-62
2021/12/05 16:05:27;;;;;;;10.60;4.93;;;21.30;51.90;;;;;;4850687;29;20533;-63
2021/12/05 16:08:07;;;;;;;9.57;5.32;;;21.30;52.00;;;;;;4851862;29;20463;-59
2021/12/05 16:10:36;;;;;;;10.23;4.45;;;21.30;52.00;;;;;;4844286;29;20030;-58
2021/12/05 16:13:11;;;;;;;11.70;5.20;;;21.30;52.10;;;;;;4847945;29;20457;-60
2021/12/05 16:15:37;;;;;;;11.35;4.60;;;21.30;52.20;;;;;;4847661;29;20052;-60
2021/12/05 16:18:03;;;;;;;11.20;4.65;;;21.30;52.20;;;;;;4848411;29;20505;-58
2021/12/05 16:20:43;;;;;;;12.30;4.85;;;21.30;52.00;;;;;;4852671;29;20045;-59
2021/12/05 16:23:19;;;;;;;14.15;4.50;;;21.30;51.90;;;;;;4845376;29;20030;-60
2021/12/05 16:25:47;;;;;;;12.85;4.35;;;21.30;51.80;;;;;;4847337;29;20018;-58
2021/12/05 16:28:21;;;;;;;9.88;4.35;;;21.30;51.60;;;;;;4846202;29;20367;-60
2021/12/05 16:30:48;;;;;;;12.63;4.30;;;21.30;51.60;;;;;;4854335;29;20137;-60
2021/12/05 16:33:16;;;;;;;27.70;4.40;;;21.30;51.70;;;;;;4851544;29;20044;-60
2021/12/05 16:35:46;;;;;;;13.98;4.00;;;21.30;51.90;;;;;;4855808;29;20041;-60
2021/12/05 16:38:20;;;;;;;10.23;3.90;;;21.20;51.80;;;;;;4858012;29;20100;-60
2021/12/05 16:40:59;;;;;;;14.27;3.65;;;21.20;51.80;;;;;;4853587;29;20587;-61
2021/12/05 16:43:27;;;;;;;7.13;3.60;;;21.20;51.60;;;;;;4851191;29;20152;-61
2021/12/05 16:46:13;;;;;;;8.40;3.53;;;21.10;51.20;;;;;;4852533;29;20037;-60
2021/12/05 16:48:42;;;;;;;9.82;3.30;;;21.10;50.60;;;;;;4835555;29;20029;-61
2021/12/05 16:51:22;;;;;;;6.57;2.95;;;21.10;49.50;;;;;;4845529;29;20094;-61
2021/12/05 16:53:50;;;;;;;5.47;3.25;;;21.00;49.10;;;;;;4846426;29;20033;-62
2021/12/05 16:56:39;;;;;;;6.25;2.85;;;21.10;49.10;;;;;;4846133;29;20037;-62
2021/12/05 16:59:15;;;;;;;5.78;2.90;;;21.00;49.60;;;;;;4846322;29;20459;-61
2021/12/05 17:01:41;;;;;;;7.90;2.85;;;21.00;48.60;;;;;;4849461;29;20025;-61
2021/12/05 17:04:08;;;;;;;6.35;2.67;;;21.00;48.50;;;;;;4848039;29;20067;-59
2021/12/05 17:07:05;;;;;;;4.68;2.45;;;21.10;49.50;;;;;;4863296;29;20032;-62
2021/12/05 17:09:38;;;;;;;5.50;2.38;;;21.00;48.50;;;;;;4837899;29;20042;-61
2021/12/05 17:12:04;;;;;;;5.57;2.30;;;21.10;48.60;;;;;;4854277;29;20030;-61
2021/12/05 17:14:30;;;;;;;6.13;2.42;;;21.00;48.60;;;;;;4858198;29;20045;-61
2021/12/05 17:16:56;;;;;;;4.57;2.28;;;21.10;48.60;;;;;;4837120;29;20101;-60
2021/12/05 17:19:26;;;;;;;4.97;2.60;;;21.10;48.60;;;;;;4855038;29;20521;-60
2021/12/05 17:21:52;;;;;;;4.78;2.15;;;21.10;48.50;;;;;;4853342;29;20069;-61
2021/12/05 17:24:22;;;;;;;4.22;2.05;;;21.20;48.50;;;;;;4855127;29;20514;-61
2021/12/05 17:26:52;;;;;;;6.30;1.90;;;21.20;48.40;;;;;;4851423;29;20462;-58
2021/12/05 17:29:27;;;;;;;5.13;2.72;;;21.20;48.40;;;;;;4861265;29;20062;-58
2021/12/05 17:32:06;;;;;;;4.75;2.15;;;21.30;48.50;;;;;;4849777;29;20050;-60
2021/12/05 17:34:37;;;;;;;5.95;2.05;;;21.30;48.30;;;;;;4849449;29;20046;-61
2021/12/05 17:37:06;;;;;;;4.97;2.20;;;21.30;48.40;;;;;;4850864;29;20034;-59
2021/12/05 17:39:35;;;;;;;4.78;2.20;;;21.40;48.50;;;;;;4848196;29;20051;-60
2021/12/05 17:42:16;;;;;;;6.65;2.20;;;21.40;48.60;;;;;;4849808;29;20128;-66
2021/12/05 17:44:45;;;;;;;3.95;1.95;;;21.40;48.60;;;;;;4855531;29;20543;-63
2021/12/05 17:47:12;;;;;;;3.13;2.05;;;21.40;49.00;;;;;;4850481;29;20057;-62
2021/12/05 17:49:42;;;;;;;6.43;1.85;;;21.40;49.10;;;;;;4847726;29;20105;-64
2021/12/05 17:52:11;;;;;;;5.70;1.83;;;21.30;48.80;;;;;;4846788;29;20094;-62
2021/12/05 17:57:19;;;;;;;3.20;1.60;;;21.30;49.10;;;;;;4847618;29;20042;-61
2021/12/05 18:05:08;;;;;;;7.20;2.17;;;21.30;48.30;;;;;;4852209;29;20067;-59
2021/12/05 18:07:33;;;;;;;7.32;2.45;;;21.20;48.10;;;;;;4855236;29;20122;-64
2021/12/05 18:09:59;;;;;;;8.75;2.42;;;21.20;47.70;;;;;;4857108;29;20116;-64
2021/12/05 18:12:33;;;;;;;3.83;2.08;;;21.20;47.80;;;;;;4848383;29;20120;-64
2021/12/05 18:15:05;;;;;;;3.75;2.22;;;21.20;47.90;;;;;;4855203;29;20494;-64
2021/12/05 18:17:31;;;;;;;4.13;1.83;;;21.10;47.60;;;;;;4846944;29;20045;-60
2021/12/05 18:19:57;;;;;;;3.15;1.90;;;21.10;47.30;;;;;;4847543;29;20369;-60
2021/12/05 18:22:23;;;;;;;4.25;1.83;;;21.20;47.20;;;;;;4846850;29;20086;-60